createdAt,value
2019-01-18T00:02:07.951Z,1.46
2019-01-18T00:04:38.392Z,1.42
2019-01-18T00:07:27.984Z,1.42
2019-01-18T00:10:17.629Z,1.44
2019-01-18T00:12:48.674Z,1.46
2019-01-18T00:15:20.470Z,1.46
2019-01-18T00:17:51.364Z,1.52
2019-01-18T00:20:21.839Z,1.48
2019-01-18T00:22:54.033Z,1.54
2019-01-18T00:25:44.489Z,1.54
2019-01-18T00:31:43.324Z,1.55
2019-01-18T00:34:33.724Z,1.59
2019-01-18T00:37:24.867Z,1.55
2019-01-18T00:40:06.962Z,1.52
2019-01-18T00:42:37.709Z,1.50
2019-01-18T00:45:11.783Z,1.50
2019-01-18T00:47:42.525Z,1.50
2019-01-18T00:50:15.432Z,1.44
2019-01-18T00:52:45.937Z,1.52
2019-01-18T00:55:16.467Z,1.50
2019-01-18T00:57:47.034Z,1.49
2019-01-18T01:00:21.924Z,1.48
2019-01-18T01:02:52.815Z,1.53
2019-01-18T01:05:23.642Z,1.48
2019-01-18T01:07:54.131Z,1.48
2019-01-18T01:10:24.764Z,1.50
2019-01-18T01:12:55.505Z,1.44
2019-01-18T01:15:26.154Z,1.48
2019-01-18T01:17:56.611Z,1.47
2019-01-18T01:20:26.988Z,1.45
2019-01-18T01:22:57.743Z,1.41
2019-01-18T01:25:28.184Z,1.41
2019-01-18T01:27:58.615Z,1.40
2019-01-18T01:30:29.119Z,1.37
2019-01-18T01:32:59.581Z,1.32
2019-01-18T01:35:30.047Z,1.28
2019-01-18T01:38:00.495Z,1.25
2019-01-18T01:40:31.052Z,1.22
2019-01-18T01:43:01.938Z,1.21
2019-01-18T01:45:32.417Z,1.15
2019-01-18T01:48:02.848Z,1.14
2019-01-18T01:50:33.228Z,1.13
2019-01-18T01:53:03.697Z,1.11
2019-01-18T01:55:34.173Z,1.12
2019-01-18T01:58:05.540Z,1.09
2019-01-18T02:00:36.000Z,1.09
2019-01-18T02:03:06.510Z,1.04
2019-01-18T02:05:36.958Z,1.03
2019-01-18T02:08:07.423Z,1.03
2019-01-18T02:10:38.031Z,1.05
2019-01-18T02:13:09.012Z,1.04
2019-01-18T02:15:39.738Z,0.99
2019-01-18T02:18:10.162Z,1.03
2019-01-18T02:20:40.598Z,1.00
2019-01-18T02:23:11.069Z,1.00
2019-01-18T02:25:41.830Z,1.03
2019-01-18T02:28:12.537Z,1.08
2019-01-18T02:30:44.782Z,1.09
2019-01-18T02:33:15.244Z,1.04
2019-01-18T02:35:45.623Z,1.08
2019-01-18T02:38:16.085Z,1.03
2019-01-18T02:40:46.497Z,1.03
2019-01-18T02:43:17.259Z,1.02
2019-01-18T02:45:48.189Z,0.97
2019-01-18T02:48:18.889Z,0.94
2019-01-18T02:50:49.325Z,0.91
2019-01-18T02:53:19.924Z,0.90
2019-01-18T02:55:50.288Z,0.86
2019-01-18T02:58:20.592Z,0.85
2019-01-18T03:00:51.076Z,0.84
2019-01-18T03:03:21.685Z,0.84
2019-01-18T03:05:52.184Z,0.76
2019-01-18T03:08:22.818Z,0.78
2019-01-18T03:10:53.269Z,0.71
2019-01-18T03:13:23.887Z,0.68
2019-01-18T03:15:54.272Z,0.67
2019-01-18T03:18:24.637Z,0.68
2019-01-18T03:20:55.061Z,0.65
2019-01-18T03:23:25.475Z,0.65
2019-01-18T03:25:56.120Z,0.66
2019-01-18T03:28:26.522Z,0.69
2019-01-18T03:30:56.795Z,0.68
2019-01-18T03:33:27.461Z,0.63
2019-01-18T03:35:57.925Z,0.60
2019-01-18T03:38:28.897Z,0.65
2019-01-18T03:40:59.356Z,0.63
2019-01-18T03:43:29.865Z,0.66
2019-01-18T03:46:00.653Z,0.62
2019-01-18T03:48:31.156Z,0.58
2019-01-18T03:51:01.869Z,0.60
2019-01-18T03:53:32.357Z,0.54
2019-01-18T03:56:03.004Z,0.47
2019-01-18T03:58:33.757Z,0.40
2019-01-18T04:01:04.583Z,0.41
2019-01-18T04:03:35.360Z,0.40
2019-01-18T04:06:05.793Z,0.41
2019-01-18T04:08:36.526Z,0.38
2019-01-18T04:11:06.975Z,0.39
2019-01-18T04:13:37.448Z,0.48
2019-01-18T04:16:08.018Z,0.43
2019-01-18T04:18:38.726Z,0.42
2019-01-18T04:21:09.152Z,0.36
2019-01-18T04:23:39.562Z,0.33
2019-01-18T04:26:10.317Z,0.29
2019-01-18T04:28:41.075Z,0.27
2019-01-18T04:31:11.848Z,0.22
2019-01-18T04:33:42.577Z,0.20
2019-01-18T04:36:13.005Z,0.21
2019-01-18T04:38:43.467Z,0.22
2019-01-18T04:41:13.822Z,0.34
2019-01-18T04:43:44.703Z,0.31
2019-01-18T04:46:15.489Z,0.26
2019-01-18T04:48:45.964Z,0.21
2019-01-18T04:51:16.383Z,0.14
2019-01-18T04:53:46.885Z,0.17
2019-01-18T04:56:17.328Z,0.23
2019-01-18T04:58:47.839Z,0.25
2019-01-18T05:01:18.601Z,0.25
2019-01-18T05:03:48.940Z,0.25
2019-01-18T05:06:19.323Z,0.24
2019-01-18T05:08:49.821Z,0.21
2019-01-18T05:11:20.165Z,0.18
2019-01-18T05:13:50.566Z,0.19
2019-01-18T05:16:21.263Z,0.17
2019-01-18T05:18:51.679Z,0.19
2019-01-18T05:21:22.122Z,0.21
2019-01-18T05:23:52.517Z,0.17
2019-01-18T05:26:22.893Z,0.19
2019-01-18T05:28:53.377Z,0.11
2019-01-18T05:31:23.884Z,0.03
2019-01-18T05:33:54.147Z,-0.01
2019-01-18T05:36:24.600Z,-0.03
2019-01-18T05:38:55.201Z,-0.03
2019-01-18T05:41:25.873Z,0.02
2019-01-18T05:43:56.550Z,-0.01
2019-01-18T05:46:27.284Z,-0.02
2019-01-18T05:48:57.720Z,-0.06
2019-01-18T05:51:28.226Z,-0.01
2019-01-18T05:53:58.694Z,0.11
2019-01-18T05:56:29.396Z,0.13
2019-01-18T05:59:00.094Z,0.13
2019-01-18T06:01:30.949Z,0.12
2019-01-18T06:04:01.407Z,0.17
2019-01-18T06:06:31.963Z,0.26
2019-01-18T06:09:02.667Z,0.39
2019-01-18T06:11:33.331Z,0.43
2019-01-18T06:14:03.785Z,0.51
2019-01-18T06:16:34.387Z,0.53
2019-01-18T06:19:05.399Z,0.56
2019-01-18T06:21:35.925Z,0.59
2019-01-18T06:24:06.810Z,0.64
2019-01-18T06:26:37.496Z,0.64
2019-01-18T06:29:08.300Z,0.63
2019-01-18T06:31:39.186Z,0.62
2019-01-18T06:34:09.735Z,0.61
2019-01-18T06:36:40.305Z,0.56
2019-01-18T06:39:11.085Z,0.50
2019-01-18T06:41:48.496Z,0.45
2019-01-18T06:44:19.286Z,0.41
2019-01-18T06:46:49.676Z,0.38
2019-01-18T06:49:20.383Z,0.35
2019-01-18T06:51:51.399Z,0.42
2019-01-18T06:54:22.448Z,0.39
2019-01-18T06:56:53.540Z,0.41
2019-01-18T06:59:24.276Z,0.43
2019-01-18T07:01:55.684Z,0.45
2019-01-18T07:04:26.417Z,0.47
2019-01-18T07:06:57.518Z,0.54
2019-01-18T07:09:28.125Z,0.55
2019-01-18T07:11:59.572Z,0.58
2019-01-18T07:14:30.145Z,0.60
2019-01-18T07:17:00.903Z,0.56
2019-01-18T07:19:31.448Z,0.54
2019-01-18T07:22:01.970Z,0.48
2019-01-18T07:24:32.768Z,0.43
2019-01-18T07:27:03.423Z,0.43
2019-01-18T07:29:33.956Z,0.48
2019-01-18T07:32:04.653Z,0.46
2019-01-18T07:34:35.517Z,0.47
2019-01-18T07:37:06.304Z,0.45
2019-01-18T07:39:36.887Z,0.50
2019-01-18T07:42:07.690Z,0.51
2019-01-18T07:44:38.177Z,0.54
2019-01-18T07:47:09.037Z,0.57
2019-01-18T07:49:39.614Z,0.63
2019-01-18T07:52:10.173Z,0.59
2019-01-18T07:54:40.842Z,0.64
2019-01-18T07:57:11.532Z,0.67
2019-01-18T07:59:42.084Z,0.65
2019-01-18T08:02:12.557Z,0.65
2019-01-18T08:04:43.270Z,0.69
2019-01-18T08:07:14.011Z,0.69
2019-01-18T08:09:44.808Z,0.73
2019-01-18T08:12:15.415Z,0.81
2019-01-18T08:14:46.682Z,0.94
2019-01-18T08:17:17.578Z,1.13
2019-01-18T08:19:48.148Z,1.32
2019-01-18T08:22:18.836Z,1.48
2019-01-18T08:24:49.339Z,1.68
2019-01-18T08:27:20.021Z,1.76
2019-01-18T08:29:50.394Z,1.86
2019-01-18T08:32:20.772Z,2.06
2019-01-18T08:34:51.478Z,2.15
2019-01-18T08:37:21.941Z,2.18
2019-01-18T08:39:52.180Z,2.37
2019-01-18T08:42:22.626Z,2.49
2019-01-18T08:44:53.013Z,2.48
2019-01-18T08:47:23.537Z,2.67
2019-01-18T08:49:53.973Z,2.83
2019-01-18T08:52:24.451Z,3.07
2019-01-18T08:54:55.083Z,3.21
2019-01-18T08:57:25.504Z,3.30
2019-01-18T08:59:56.003Z,3.47
2019-01-18T09:02:26.432Z,3.67
2019-01-18T09:04:56.910Z,3.84
2019-01-18T09:07:28.358Z,3.97
2019-01-18T09:09:58.731Z,3.97
2019-01-18T09:12:29.419Z,3.79
2019-01-18T09:14:59.869Z,3.88
2019-01-18T09:17:30.584Z,3.72
2019-01-18T09:20:00.957Z,3.45
2019-01-18T09:22:31.409Z,3.39
2019-01-18T09:25:02.141Z,3.41
2019-01-18T09:27:32.870Z,3.85
2019-01-18T09:30:03.374Z,4.29
2019-01-18T09:32:34.094Z,4.42
2019-01-18T09:35:05.483Z,4.47
2019-01-18T09:37:35.887Z,4.70
2019-01-18T09:40:10.156Z,4.85
2019-01-18T09:42:40.652Z,5.01
2019-01-18T09:45:12.456Z,4.72
2019-01-18T09:47:42.968Z,4.52
2019-01-18T09:50:17.130Z,4.51
2019-01-18T09:52:47.919Z,4.61
2019-01-18T09:55:18.341Z,4.64
2019-01-18T09:57:48.830Z,4.71
2019-01-18T10:00:34.627Z,4.70
2019-01-18T10:03:05.312Z,4.84
2019-01-18T10:05:36.106Z,5.16
2019-01-18T10:08:09.966Z,5.63
2019-01-18T10:10:40.864Z,5.82
2019-01-18T10:13:11.330Z,5.30
2019-01-18T10:15:46.780Z,4.94
2019-01-18T10:18:17.694Z,4.95
2019-01-18T10:20:48.131Z,4.76
2019-01-18T10:23:18.607Z,4.63
2019-01-18T10:25:49.028Z,4.66
2019-01-18T10:28:19.736Z,5.05
2019-01-18T10:30:50.488Z,5.21
2019-01-18T10:33:21.094Z,5.63
2019-01-18T10:35:51.519Z,6.00
2019-01-18T10:38:21.894Z,6.26
2019-01-18T10:40:52.254Z,6.39
2019-01-18T10:43:22.688Z,6.87
2019-01-18T10:45:53.421Z,6.98
2019-01-18T10:48:24.203Z,7.42
2019-01-18T10:50:54.628Z,7.42
2019-01-18T10:53:25.048Z,7.60
2019-01-18T10:55:55.932Z,7.64
2019-01-18T10:58:26.390Z,7.57
2019-01-18T11:00:56.855Z,7.10
2019-01-18T11:03:27.616Z,6.61
2019-01-18T11:05:58.059Z,6.56
2019-01-18T11:08:28.784Z,6.65
2019-01-18T11:10:59.090Z,6.95
2019-01-18T11:13:29.528Z,7.30
2019-01-18T11:15:59.996Z,7.09
2019-01-18T11:18:30.436Z,6.78
2019-01-18T11:21:14.053Z,6.58
2019-01-18T11:23:44.756Z,6.30
2019-01-18T11:26:15.460Z,6.28
2019-01-18T11:28:46.213Z,5.87
2019-01-18T11:31:16.695Z,6.04
2019-01-18T11:33:47.123Z,6.01
2019-01-18T11:36:17.526Z,6.06
2019-01-18T11:38:47.966Z,6.30
2019-01-18T11:41:18.404Z,6.12
2019-01-18T11:43:48.905Z,5.91
2019-01-18T11:46:19.532Z,5.71
2019-01-18T11:48:50.433Z,5.72
2019-01-18T11:51:21.217Z,5.83
2019-01-18T11:53:51.598Z,6.20
2019-01-18T11:56:22.050Z,6.39
2019-01-18T11:58:52.531Z,6.00
2019-01-18T12:01:22.967Z,5.83
2019-01-18T12:03:53.378Z,5.47
2019-01-18T12:06:24.053Z,5.63
2019-01-18T12:08:54.497Z,5.47
2019-01-18T12:11:25.307Z,5.55
2019-01-18T12:13:55.775Z,5.45
2019-01-18T12:16:26.501Z,5.40
2019-01-18T12:18:57.470Z,5.06
2019-01-18T12:21:28.128Z,5.19
2019-01-18T12:23:58.809Z,5.19
2019-01-18T12:26:29.262Z,5.13
2019-01-18T12:28:59.738Z,5.12
2019-01-18T12:31:30.248Z,5.28
2019-01-18T12:34:00.741Z,5.02
2019-01-18T12:36:31.184Z,5.14
2019-01-18T12:39:01.630Z,5.63
2019-01-18T12:41:32.011Z,5.94
2019-01-18T12:44:02.480Z,5.96
2019-01-18T12:46:32.946Z,6.20
2019-01-18T12:49:03.609Z,6.53
2019-01-18T12:51:34.282Z,6.46
2019-01-18T12:54:05.115Z,5.72
2019-01-18T12:56:35.726Z,6.33
2019-01-18T12:59:06.319Z,6.16
2019-01-18T13:01:37.166Z,5.87
2019-01-18T13:04:08.335Z,5.84
2019-01-18T13:06:38.909Z,5.57
2019-01-18T13:09:09.844Z,5.89
2019-01-18T13:11:40.409Z,5.70
2019-01-18T13:14:11.620Z,5.35
2019-01-18T13:16:48.211Z,5.45
2019-01-18T13:19:24.851Z,5.88
2019-01-18T13:21:55.354Z,5.75
2019-01-18T13:24:25.970Z,5.59
2019-01-18T13:26:56.667Z,5.13
2019-01-18T13:29:27.313Z,6.00
2019-01-18T13:31:57.794Z,5.67
2019-01-18T13:34:28.567Z,5.99
2019-01-18T13:36:59.198Z,6.06
2019-01-18T13:39:29.790Z,6.19
2019-01-18T13:42:00.495Z,6.06
2019-01-18T13:44:31.334Z,6.10
2019-01-18T13:47:01.898Z,5.78
2019-01-18T13:49:32.657Z,5.53
2019-01-18T13:52:03.390Z,5.57
2019-01-18T13:54:34.308Z,5.52
2019-01-18T13:57:04.943Z,5.57
2019-01-18T13:59:35.612Z,5.39
2019-01-18T14:02:06.266Z,5.32
2019-01-18T14:04:37.029Z,5.03
2019-01-18T14:07:07.658Z,4.87
2019-01-18T14:09:38.224Z,4.69
2019-01-18T14:12:08.890Z,4.50
2019-01-18T14:14:39.574Z,4.42
2019-01-18T14:17:10.204Z,4.32
2019-01-18T14:19:41.101Z,4.16
2019-01-18T14:22:11.675Z,4.10
2019-01-18T14:24:42.268Z,4.05
2019-01-18T14:27:12.706Z,3.96
2019-01-18T14:29:43.177Z,3.88
2019-01-18T14:32:13.917Z,3.85
2019-01-18T14:34:44.643Z,3.70
2019-01-18T14:37:15.411Z,3.72
2019-01-18T14:39:45.851Z,3.68
2019-01-18T14:42:16.284Z,3.50
2019-01-18T14:44:46.788Z,3.39
2019-01-18T14:47:17.513Z,3.34
2019-01-18T14:49:47.948Z,3.28
2019-01-18T14:52:18.392Z,3.33
2019-01-18T14:54:48.809Z,3.31
2019-01-18T14:57:19.278Z,3.22
2019-01-18T14:59:49.757Z,3.26
2019-01-18T15:02:20.108Z,3.28
2019-01-18T15:04:50.792Z,3.26
2019-01-18T15:07:21.244Z,3.11
2019-01-18T15:09:51.637Z,2.98
2019-01-18T15:12:22.359Z,2.94
2019-01-18T15:14:52.807Z,2.80
2019-01-18T15:17:23.194Z,2.83
2019-01-18T15:19:53.618Z,2.69
2019-01-18T15:22:24.116Z,2.69
2019-01-18T15:24:54.568Z,2.69
2019-01-18T15:27:25.255Z,2.57
2019-01-18T15:29:56.023Z,2.54
2019-01-18T15:32:26.420Z,2.45
2019-01-18T15:34:57.283Z,2.47
2019-01-18T15:37:27.835Z,2.30
2019-01-18T15:39:58.248Z,2.31
2019-01-18T15:42:28.689Z,2.21
2019-01-18T15:45:19.107Z,2.19
2019-01-18T15:48:08.825Z,2.13
2019-01-18T15:50:51.413Z,2.06
2019-01-18T15:53:41.381Z,2.09
2019-01-18T15:56:23.916Z,2.08
2019-01-18T16:02:20.254Z,2.00
2019-01-18T16:05:10.189Z,1.97
2019-01-18T16:07:59.930Z,1.92
2019-01-18T16:10:42.204Z,1.87
2019-01-18T16:13:31.950Z,1.84
2019-01-18T16:16:19.922Z,1.80
2019-01-18T16:19:09.747Z,1.75
2019-01-18T16:21:40.249Z,1.73
2019-01-18T16:24:48.669Z,1.74
2019-01-18T16:27:38.326Z,1.69
2019-01-18T16:30:21.098Z,1.65
2019-01-18T16:33:10.601Z,1.57
2019-01-18T16:35:41.115Z,1.56
2019-01-18T16:38:12.540Z,1.58
2019-01-18T16:40:43.290Z,1.49
2019-01-18T16:43:21.492Z,1.49
2019-01-18T16:45:52.167Z,1.48
2019-01-18T16:48:22.625Z,1.51
2019-01-18T16:50:53.367Z,1.46
2019-01-18T16:53:23.906Z,1.48
2019-01-18T16:55:54.248Z,1.45
2019-01-18T16:58:24.717Z,1.41
2019-01-18T17:00:56.975Z,1.43
2019-01-18T17:03:30.606Z,1.38
2019-01-18T17:05:59.637Z,1.41
2019-01-18T17:08:30.372Z,1.33
2019-01-18T17:11:00.810Z,1.33
2019-01-18T17:13:36.264Z,1.31
2019-01-18T17:16:07.276Z,1.30
2019-01-18T17:18:38.301Z,1.33
2019-01-18T17:21:09.159Z,1.27
2019-01-18T17:23:39.616Z,1.25
2019-01-18T17:26:10.270Z,1.28
2019-01-18T17:28:41.203Z,1.27
2019-01-18T17:31:11.953Z,1.25
2019-01-18T17:33:42.511Z,1.27
2019-01-18T17:36:57.354Z,1.24
2019-01-18T17:40:18.597Z,1.23
2019-01-18T17:43:46.161Z,1.23
2019-01-18T17:47:39.574Z,1.18
2019-01-18T17:51:11.247Z,1.17
2019-01-18T17:54:10.773Z,1.21
2019-01-18T17:57:03.871Z,1.17
2019-01-18T18:00:26.036Z,1.10
2019-01-18T18:03:44.401Z,1.14
2019-01-18T18:06:37.970Z,1.10
2019-01-18T18:09:22.103Z,1.12
2019-01-18T18:12:32.501Z,1.12
2019-01-18T18:16:12.408Z,1.08
2019-01-18T18:19:18.577Z,1.10
2019-01-18T18:23:07.782Z,1.16
2019-01-18T18:26:20.053Z,1.12
2019-01-18T18:29:29.922Z,1.13
2019-01-18T18:32:59.987Z,1.06
2019-01-18T18:36:04.844Z,1.10
2019-01-18T18:39:23.103Z,1.06
2019-01-18T18:42:58.659Z,1.00
2019-01-18T18:46:06.294Z,0.96
2019-01-18T18:49:12.417Z,0.96
2019-01-18T18:52:48.243Z,0.99
2019-01-18T18:56:05.948Z,0.98
2019-01-18T18:59:25.539Z,0.98
2019-01-18T19:03:04.949Z,0.95
2019-01-18T19:06:32.073Z,0.93
2019-01-18T19:09:35.139Z,0.91
2019-01-18T19:13:08.818Z,0.94
2019-01-18T19:16:25.407Z,0.90
2019-01-18T19:19:40.762Z,0.90
2019-01-18T19:23:03.077Z,0.90
2019-01-18T19:26:15.963Z,0.90
2019-01-18T19:30:01.366Z,0.89
2019-01-18T19:33:15.050Z,0.87
2019-01-18T19:37:15.244Z,0.83
2019-01-18T19:40:32.125Z,0.87
2019-01-18T19:43:44.128Z,0.88
2019-01-18T19:47:15.862Z,0.87
2019-01-18T19:50:43.436Z,0.93
2019-01-18T19:53:28.059Z,0.92
2019-01-18T19:57:00.132Z,0.92
2019-01-18T20:00:26.517Z,0.92
2019-01-18T20:03:52.870Z,0.93
2019-01-18T20:07:29.066Z,0.93
2019-01-18T20:11:08.673Z,0.93
2019-01-18T20:14:52.864Z,0.91
2019-01-18T20:18:01.646Z,0.94
2019-01-18T20:20:49.612Z,0.90
2019-01-18T20:24:14.719Z,0.90
2019-01-18T20:27:42.438Z,0.84
2019-01-18T20:31:10.131Z,0.87
2019-01-18T20:34:38.076Z,0.82
2019-01-18T20:37:39.477Z,0.85
2019-01-18T20:41:07.207Z,0.83
2019-01-18T20:44:21.662Z,0.81
2019-01-18T20:47:34.077Z,0.78
2019-01-18T20:50:26.045Z,0.83
2019-01-18T20:53:48.638Z,0.81
2019-01-18T20:57:03.725Z,0.81
2019-01-18T20:59:59.247Z,0.79
2019-01-18T21:03:10.069Z,0.81
2019-01-18T21:06:55.690Z,0.86
2019-01-18T21:10:39.397Z,0.82
2019-01-18T21:13:39.638Z,0.83
2019-01-18T21:17:07.384Z,0.92
2019-01-18T21:20:35.524Z,0.90
2019-01-18T21:23:36.864Z,0.90
2019-01-18T21:26:38.768Z,0.90
2019-01-18T21:29:52.280Z,0.90
2019-01-18T21:36:27.024Z,0.91
2019-01-18T21:39:28.449Z,0.89
2019-01-18T21:42:51.059Z,0.90
2019-01-18T21:58:54.280Z,0.81
2019-01-18T22:02:38.687Z,0.87
2019-01-18T22:06:01.308Z,0.83
2019-01-18T22:09:27.063Z,0.81
2019-01-18T22:13:08.849Z,0.90
2019-01-18T22:17:07.768Z,0.88
2019-01-18T22:20:39.051Z,0.87
2019-01-18T22:23:57.246Z,0.86
2019-01-18T22:27:38.354Z,0.87
2019-01-18T22:30:58.913Z,0.85
2019-01-18T22:33:46.763Z,0.85
2019-01-18T22:37:18.746Z,0.89
2019-01-18T22:40:53.833Z,0.83
2019-01-18T22:43:42.896Z,0.86
2019-01-18T22:47:11.962Z,0.85
2019-01-18T22:50:35.283Z,0.80
2019-01-18T22:54:20.499Z,0.81
2019-01-18T22:57:48.773Z,0.81
2019-01-18T23:01:15.126Z,0.81
2019-01-18T23:04:42.868Z,0.80
2019-01-18T23:08:02.109Z,0.82
2019-01-18T23:11:29.887Z,0.76
2019-01-18T23:14:21.071Z,0.72
2019-01-18T23:18:24.572Z,0.73
2019-01-18T23:21:57.746Z,0.65
2019-01-18T23:24:44.215Z,0.68
2019-01-18T23:28:19.142Z,0.66
2019-01-18T23:31:16.252Z,0.73
2019-01-18T23:34:27.235Z,0.71
2019-01-18T23:37:25.482Z,0.75
2019-01-18T23:40:39.890Z,0.73
2019-01-18T23:44:05.255Z,0.75
2019-01-18T23:47:44.615Z,0.70
2019-01-18T23:50:56.802Z,0.66
2019-01-18T23:54:26.234Z,0.59
2019-01-18T23:58:13.061Z,0.57
